sensor_id;sensor_type;location;lat;lon;timestamp;temperature;humidity
55771;DHT22;41687;-33.234;-60.334;2023-09-18T00:01:12;14.90;43.70
55771;DHT22;41687;-33.234;-60.334;2023-09-18T00:03:39;14.90;43.90
55771;DHT22;41687;-33.234;-60.334;2023-09-18T00:06:08;15.00;43.90
55771;DHT22;41687;-33.234;-60.334;2023-09-18T00:08:39;15.00;44.10
55771;DHT22;41687;-33.234;-60.334;2023-09-18T00:11:07;14.90;44.10
55771;DHT22;41687;-33.234;-60.334;2023-09-18T00:13:34;15.00;44.20
55771;DHT22;41687;-33.234;-60.334;2023-09-18T00:16:02;15.00;44.40
55771;DHT22;41687;-33.234;-60.334;2023-09-18T00:18:31;15.00;44.40
55771;DHT22;41687;-33.234;-60.334;2023-09-18T00:20:59;15.00;44.50
55771;DHT22;41687;-33.234;-60.334;2023-09-18T00:23:27;15.00;44.70
55771;DHT22;41687;-33.234;-60.334;2023-09-18T00:25:54;15.00;44.80
55771;DHT22;41687;-33.234;-60.334;2023-09-18T00:28:22;14.90;44.80
55771;DHT22;41687;-33.234;-60.334;2023-09-18T00:30:50;14.90;45.20
55771;DHT22;41687;-33.234;-60.334;2023-09-18T00:33:18;14.90;45.30
55771;DHT22;41687;-33.234;-60.334;2023-09-18T00:35:51;14.90;45.50
55771;DHT22;41687;-33.234;-60.334;2023-09-18T00:38:18;14.90;45.80
55771;DHT22;41687;-33.234;-60.334;2023-09-18T00:40:49;14.90;45.80
55771;DHT22;41687;-33.234;-60.334;2023-09-18T00:43:17;14.90;46.20
55771;DHT22;41687;-33.234;-60.334;2023-09-18T00:45:48;14.80;45.90
55771;DHT22;41687;-33.234;-60.334;2023-09-18T00:48:17;14.90;46.00
55771;DHT22;41687;-33.234;-60.334;2023-09-18T00:50:45;14.70;46.20
55771;DHT22;41687;-33.234;-60.334;2023-09-18T00:53:22;14.60;46.70
55771;DHT22;41687;-33.234;-60.334;2023-09-18T00:55:55;14.60;46.80
55771;DHT22;41687;-33.234;-60.334;2023-09-18T00:58:24;14.60;46.90
55771;DHT22;41687;-33.234;-60.334;2023-09-18T01:00:53;14.70;46.70
55771;DHT22;41687;-33.234;-60.334;2023-09-18T01:03:25;14.70;46.90
55771;DHT22;41687;-33.234;-60.334;2023-09-18T01:05:54;14.60;47.50
55771;DHT22;41687;-33.234;-60.334;2023-09-18T01:08:22;14.60;47.70
55771;DHT22;41687;-33.234;-60.334;2023-09-18T01:17:00;14.50;48.60
55771;DHT22;41687;-33.234;-60.334;2023-09-18T01:22:10;14.40;49.10
55771;DHT22;41687;-33.234;-60.334;2023-09-18T01:24:39;14.30;49.50
55771;DHT22;41687;-33.234;-60.334;2023-09-18T01:27:10;14.40;49.60
55771;DHT22;41687;-33.234;-60.334;2023-09-18T01:29:40;14.40;49.50
55771;DHT22;41687;-33.234;-60.334;2023-09-18T01:32:10;14.40;49.40
55771;DHT22;41687;-33.234;-60.334;2023-09-18T01:34:45;14.40;49.70
55771;DHT22;41687;-33.234;-60.334;2023-09-18T01:37:18;14.40;50.10
55771;DHT22;41687;-33.234;-60.334;2023-09-18T01:39:49;14.30;49.90
55771;DHT22;41687;-33.234;-60.334;2023-09-18T01:42:17;14.30;49.70
55771;DHT22;41687;-33.234;-60.334;2023-09-18T01:44:47;14.30;50.20
55771;DHT22;41687;-33.234;-60.334;2023-09-18T01:47:18;14.30;50.10
55771;DHT22;41687;-33.234;-60.334;2023-09-18T01:49:46;14.20;50.30
55771;DHT22;41687;-33.234;-60.334;2023-09-18T01:52:17;14.20;50.50
55771;DHT22;41687;-33.234;-60.334;2023-09-18T01:54:45;14.20;50.80
55771;DHT22;41687;-33.234;-60.334;2023-09-18T01:57:13;14.20;50.70
55771;DHT22;41687;-33.234;-60.334;2023-09-18T01:59:41;14.20;50.60
55771;DHT22;41687;-33.234;-60.334;2023-09-18T02:02:11;14.20;50.90
55771;DHT22;41687;-33.234;-60.334;2023-09-18T02:04:39;14.20;50.60
55771;DHT22;41687;-33.234;-60.334;2023-09-18T02:07:07;14.20;50.90
55771;DHT22;41687;-33.234;-60.334;2023-09-18T02:09:35;14.20;50.90
55771;DHT22;41687;-33.234;-60.334;2023-09-18T02:12:04;14.20;51.10
55771;DHT22;41687;-33.234;-60.334;2023-09-18T02:14:32;14.20;51.10
55771;DHT22;41687;-33.234;-60.334;2023-09-18T02:17:00;14.20;51.40
55771;DHT22;41687;-33.234;-60.334;2023-09-18T02:19:28;14.10;51.70
55771;DHT22;41687;-33.234;-60.334;2023-09-18T02:21:57;14.00;52.00
55771;DHT22;41687;-33.234;-60.334;2023-09-18T02:24:24;14.00;52.30
55771;DHT22;41687;-33.234;-60.334;2023-09-18T02:26:54;14.00;52.10
55771;DHT22;41687;-33.234;-60.334;2023-09-18T02:29:22;14.00;52.80
55771;DHT22;41687;-33.234;-60.334;2023-09-18T02:31:49;13.90;52.80
55771;DHT22;41687;-33.234;-60.334;2023-09-18T02:34:17;14.00;52.40
55771;DHT22;41687;-33.234;-60.334;2023-09-18T02:36:47;14.00;52.60
55771;DHT22;41687;-33.234;-60.334;2023-09-18T02:39:16;14.00;52.60
55771;DHT22;41687;-33.234;-60.334;2023-09-18T02:41:46;14.00;52.80
55771;DHT22;41687;-33.234;-60.334;2023-09-18T02:44:14;14.10;52.50
55771;DHT22;41687;-33.234;-60.334;2023-09-18T02:46:42;14.00;52.60
55771;DHT22;41687;-33.234;-60.334;2023-09-18T02:49:11;13.90;52.70
55771;DHT22;41687;-33.234;-60.334;2023-09-18T02:51:39;14.00;53.00
55771;DHT22;41687;-33.234;-60.334;2023-09-18T02:54:07;13.90;52.80
55771;DHT22;41687;-33.234;-60.334;2023-09-18T02:56:35;13.80;53.30
55771;DHT22;41687;-33.234;-60.334;2023-09-18T02:59:02;13.80;53.80
55771;DHT22;41687;-33.234;-60.334;2023-09-18T03:01:30;13.90;52.90
55771;DHT22;41687;-33.234;-60.334;2023-09-18T03:03:59;13.90;53.10
55771;DHT22;41687;-33.234;-60.334;2023-09-18T03:06:27;13.90;53.00
55771;DHT22;41687;-33.234;-60.334;2023-09-18T03:08:56;13.80;53.10
55771;DHT22;41687;-33.234;-60.334;2023-09-18T03:11:23;13.90;53.20
55771;DHT22;41687;-33.234;-60.334;2023-09-18T03:13:54;13.80;53.20
55771;DHT22;41687;-33.234;-60.334;2023-09-18T03:16:22;13.90;52.80
55771;DHT22;41687;-33.234;-60.334;2023-09-18T03:18:50;13.90;53.00
55771;DHT22;41687;-33.234;-60.334;2023-09-18T03:21:17;13.90;53.10
55771;DHT22;41687;-33.234;-60.334;2023-09-18T03:23:47;13.90;53.20
55771;DHT22;41687;-33.234;-60.334;2023-09-18T03:26:14;13.90;53.00
55771;DHT22;41687;-33.234;-60.334;2023-09-18T03:28:42;13.80;53.30
55771;DHT22;41687;-33.234;-60.334;2023-09-18T03:31:10;13.80;53.40
55771;DHT22;41687;-33.234;-60.334;2023-09-18T03:33:38;13.90;53.00
55771;DHT22;41687;-33.234;-60.334;2023-09-18T03:36:06;13.90;52.90
55771;DHT22;41687;-33.234;-60.334;2023-09-18T03:38:36;13.80;53.00
55771;DHT22;41687;-33.234;-60.334;2023-09-18T03:41:04;13.80;52.90
55771;DHT22;41687;-33.234;-60.334;2023-09-18T03:43:32;13.90;52.90
55771;DHT22;41687;-33.234;-60.334;2023-09-18T03:46:07;13.90;53.00
55771;DHT22;41687;-33.234;-60.334;2023-09-18T03:48:43;13.80;53.40
55771;DHT22;41687;-33.234;-60.334;2023-09-18T03:51:11;13.80;53.40
55771;DHT22;41687;-33.234;-60.334;2023-09-18T03:53:43;13.70;53.10
55771;DHT22;41687;-33.234;-60.334;2023-09-18T03:56:13;13.80;53.00
55771;DHT22;41687;-33.234;-60.334;2023-09-18T03:58:40;13.80;52.70
55771;DHT22;41687;-33.234;-60.334;2023-09-18T04:01:09;13.70;52.90
55771;DHT22;41687;-33.234;-60.334;2023-09-18T04:03:36;13.60;52.80
55771;DHT22;41687;-33.234;-60.334;2023-09-18T04:06:05;13.60;52.80
55771;DHT22;41687;-33.234;-60.334;2023-09-18T04:08:33;13.60;52.90
55771;DHT22;41687;-33.234;-60.334;2023-09-18T04:11:01;13.60;52.70
55771;DHT22;41687;-33.234;-60.334;2023-09-18T04:13:31;13.60;52.70
55771;DHT22;41687;-33.234;-60.334;2023-09-18T04:16:00;13.50;52.90
55771;DHT22;41687;-33.234;-60.334;2023-09-18T04:18:28;13.50;53.00
55771;DHT22;41687;-33.234;-60.334;2023-09-18T04:20:56;13.50;52.90
55771;DHT22;41687;-33.234;-60.334;2023-09-18T04:23:27;13.50;52.90
55771;DHT22;41687;-33.234;-60.334;2023-09-18T04:25:55;13.40;53.40
55771;DHT22;41687;-33.234;-60.334;2023-09-18T04:28:25;13.30;53.50
55771;DHT22;41687;-33.234;-60.334;2023-09-18T04:30:52;13.30;53.70
55771;DHT22;41687;-33.234;-60.334;2023-09-18T04:33:21;13.20;54.10
55771;DHT22;41687;-33.234;-60.334;2023-09-18T04:35:49;13.30;54.00
55771;DHT22;41687;-33.234;-60.334;2023-09-18T04:38:17;13.30;54.10
55771;DHT22;41687;-33.234;-60.334;2023-09-18T04:40:46;13.20;54.20
55771;DHT22;41687;-33.234;-60.334;2023-09-18T04:43:14;13.20;54.30
55771;DHT22;41687;-33.234;-60.334;2023-09-18T04:45:43;13.10;54.70
55771;DHT22;41687;-33.234;-60.334;2023-09-18T04:48:13;13.20;54.50
55771;DHT22;41687;-33.234;-60.334;2023-09-18T04:50:40;13.20;54.50
55771;DHT22;41687;-33.234;-60.334;2023-09-18T04:53:08;13.20;54.70
55771;DHT22;41687;-33.234;-60.334;2023-09-18T04:55:35;13.10;54.80
55771;DHT22;41687;-33.234;-60.334;2023-09-18T04:58:05;13.10;54.80
55771;DHT22;41687;-33.234;-60.334;2023-09-18T05:00:33;13.10;54.90
55771;DHT22;41687;-33.234;-60.334;2023-09-18T05:03:00;13.00;54.50
55771;DHT22;41687;-33.234;-60.334;2023-09-18T05:05:28;13.00;54.10
55771;DHT22;41687;-33.234;-60.334;2023-09-18T05:07:56;13.00;54.50
55771;DHT22;41687;-33.234;-60.334;2023-09-18T05:10:24;12.90;54.50
55771;DHT22;41687;-33.234;-60.334;2023-09-18T05:12:52;12.90;54.80
55771;DHT22;41687;-33.234;-60.334;2023-09-18T05:15:25;12.80;54.20
55771;DHT22;41687;-33.234;-60.334;2023-09-18T05:17:53;12.70;54.50
55771;DHT22;41687;-33.234;-60.334;2023-09-18T05:20:28;12.70;54.20
55771;DHT22;41687;-33.234;-60.334;2023-09-18T05:22:57;12.60;54.80
55771;DHT22;41687;-33.234;-60.334;2023-09-18T05:25:26;12.60;54.70
55771;DHT22;41687;-33.234;-60.334;2023-09-18T05:28:05;12.60;54.70
55771;DHT22;41687;-33.234;-60.334;2023-09-18T05:30:34;12.40;55.00
55771;DHT22;41687;-33.234;-60.334;2023-09-18T05:33:06;12.50;54.90
55771;DHT22;41687;-33.234;-60.334;2023-09-18T05:35:44;12.40;55.30
55771;DHT22;41687;-33.234;-60.334;2023-09-18T05:38:13;12.50;54.50
55771;DHT22;41687;-33.234;-60.334;2023-09-18T05:40:41;12.40;54.40
55771;DHT22;41687;-33.234;-60.334;2023-09-18T05:43:11;12.40;54.70
55771;DHT22;41687;-33.234;-60.334;2023-09-18T05:45:39;12.20;54.80
55771;DHT22;41687;-33.234;-60.334;2023-09-18T05:48:08;12.30;54.70
55771;DHT22;41687;-33.234;-60.334;2023-09-18T05:50:36;12.30;54.60
55771;DHT22;41687;-33.234;-60.334;2023-09-18T05:53:04;12.10;54.80
55771;DHT22;41687;-33.234;-60.334;2023-09-18T05:55:32;12.10;55.40
55771;DHT22;41687;-33.234;-60.334;2023-09-18T05:58:01;12.10;54.80
55771;DHT22;41687;-33.234;-60.334;2023-09-18T06:00:31;12.20;54.50
55771;DHT22;41687;-33.234;-60.334;2023-09-18T06:02:59;12.10;54.60
55771;DHT22;41687;-33.234;-60.334;2023-09-18T06:05:27;12.00;54.90
55771;DHT22;41687;-33.234;-60.334;2023-09-18T06:07:54;12.10;54.60
55771;DHT22;41687;-33.234;-60.334;2023-09-18T06:10:22;12.00;54.80
55771;DHT22;41687;-33.234;-60.334;2023-09-18T06:12:50;12.00;55.00
55771;DHT22;41687;-33.234;-60.334;2023-09-18T06:15:18;12.00;55.40
55771;DHT22;41687;-33.234;-60.334;2023-09-18T06:17:46;12.00;54.80
55771;DHT22;41687;-33.234;-60.334;2023-09-18T06:20:14;12.10;54.70
55771;DHT22;41687;-33.234;-60.334;2023-09-18T06:22:42;12.00;55.00
55771;DHT22;41687;-33.234;-60.334;2023-09-18T06:25:10;12.00;55.00
55771;DHT22;41687;-33.234;-60.334;2023-09-18T06:27:38;11.70;55.70
55771;DHT22;41687;-33.234;-60.334;2023-09-18T06:30:07;11.80;55.70
55771;DHT22;41687;-33.234;-60.334;2023-09-18T06:32:34;11.80;55.70
55771;DHT22;41687;-33.234;-60.334;2023-09-18T06:35:04;11.80;55.60
55771;DHT22;41687;-33.234;-60.334;2023-09-18T06:37:31;11.70;56.00
55771;DHT22;41687;-33.234;-60.334;2023-09-18T06:39:59;11.80;56.00
55771;DHT22;41687;-33.234;-60.334;2023-09-18T06:42:30;11.80;56.10
55771;DHT22;41687;-33.234;-60.334;2023-09-18T06:44:58;11.80;56.20
55771;DHT22;41687;-33.234;-60.334;2023-09-18T06:47:28;11.70;56.50
55771;DHT22;41687;-33.234;-60.334;2023-09-18T06:49:56;11.70;56.30
55771;DHT22;41687;-33.234;-60.334;2023-09-18T06:52:24;11.80;56.40
55771;DHT22;41687;-33.234;-60.334;2023-09-18T06:54:53;11.80;56.30
55771;DHT22;41687;-33.234;-60.334;2023-09-18T06:57:21;11.80;56.40
55771;DHT22;41687;-33.234;-60.334;2023-09-18T06:59:49;11.70;56.30
55771;DHT22;41687;-33.234;-60.334;2023-09-18T07:02:16;11.70;56.80
55771;DHT22;41687;-33.234;-60.334;2023-09-18T07:04:44;11.60;57.00
55771;DHT22;41687;-33.234;-60.334;2023-09-18T07:07:14;11.50;57.30
55771;DHT22;41687;-33.234;-60.334;2023-09-18T07:09:42;11.60;57.30
55771;DHT22;41687;-33.234;-60.334;2023-09-18T07:12:10;11.60;57.60
55771;DHT22;41687;-33.234;-60.334;2023-09-18T07:14:37;11.50;57.50
55771;DHT22;41687;-33.234;-60.334;2023-09-18T07:17:05;11.60;58.20
55771;DHT22;41687;-33.234;-60.334;2023-09-18T07:19:33;11.50;57.80
55771;DHT22;41687;-33.234;-60.334;2023-09-18T07:22:00;11.60;57.90
55771;DHT22;41687;-33.234;-60.334;2023-09-18T07:24:28;11.60;57.70
55771;DHT22;41687;-33.234;-60.334;2023-09-18T07:26:56;11.60;57.80
55771;DHT22;41687;-33.234;-60.334;2023-09-18T07:29:27;11.50;58.10
55771;DHT22;41687;-33.234;-60.334;2023-09-18T07:31:55;11.50;58.10
55771;DHT22;41687;-33.234;-60.334;2023-09-18T07:34:23;11.60;58.50
55771;DHT22;41687;-33.234;-60.334;2023-09-18T07:36:50;11.60;58.30
55771;DHT22;41687;-33.234;-60.334;2023-09-18T07:39:22;11.40;58.50
55771;DHT22;41687;-33.234;-60.334;2023-09-18T07:41:49;11.50;58.10
55771;DHT22;41687;-33.234;-60.334;2023-09-18T07:44:21;11.60;58.50
55771;DHT22;41687;-33.234;-60.334;2023-09-18T07:46:50;11.50;58.30
55771;DHT22;41687;-33.234;-60.334;2023-09-18T07:49:17;11.50;58.30
55771;DHT22;41687;-33.234;-60.334;2023-09-18T07:51:45;11.50;58.50
55771;DHT22;41687;-33.234;-60.334;2023-09-18T07:54:14;11.60;58.40
55771;DHT22;41687;-33.234;-60.334;2023-09-18T07:56:45;11.50;58.30
55771;DHT22;41687;-33.234;-60.334;2023-09-18T07:59:12;11.50;58.20
55771;DHT22;41687;-33.234;-60.334;2023-09-18T08:01:41;11.40;58.30
55771;DHT22;41687;-33.234;-60.334;2023-09-18T08:04:09;11.40;58.50
55771;DHT22;41687;-33.234;-60.334;2023-09-18T08:06:36;11.40;58.40
55771;DHT22;41687;-33.234;-60.334;2023-09-18T08:09:04;11.30;58.30
55771;DHT22;41687;-33.234;-60.334;2023-09-18T08:11:32;11.20;58.20
55771;DHT22;41687;-33.234;-60.334;2023-09-18T08:14:00;11.20;58.10
55771;DHT22;41687;-33.234;-60.334;2023-09-18T08:16:28;11.20;58.10
55771;DHT22;41687;-33.234;-60.334;2023-09-18T08:18:56;11.10;58.00
55771;DHT22;41687;-33.234;-60.334;2023-09-18T08:21:23;11.10;58.00
55771;DHT22;41687;-33.234;-60.334;2023-09-18T08:23:51;11.10;57.70
55771;DHT22;41687;-33.234;-60.334;2023-09-18T08:26:19;10.90;58.30
55771;DHT22;41687;-33.234;-60.334;2023-09-18T08:28:47;11.00;57.80
55771;DHT22;41687;-33.234;-60.334;2023-09-18T08:31:15;10.90;57.70
55771;DHT22;41687;-33.234;-60.334;2023-09-18T08:33:43;11.00;57.80
55771;DHT22;41687;-33.234;-60.334;2023-09-18T08:36:11;10.90;58.00
55771;DHT22;41687;-33.234;-60.334;2023-09-18T08:38:39;10.80;57.70
55771;DHT22;41687;-33.234;-60.334;2023-09-18T08:41:08;10.90;57.80
55771;DHT22;41687;-33.234;-60.334;2023-09-18T08:43:37;10.70;58.10
55771;DHT22;41687;-33.234;-60.334;2023-09-18T08:46:08;10.80;57.90
55771;DHT22;41687;-33.234;-60.334;2023-09-18T08:48:37;10.80;57.70
55771;DHT22;41687;-33.234;-60.334;2023-09-18T08:51:06;10.70;58.00
55771;DHT22;41687;-33.234;-60.334;2023-09-18T08:53:35;10.60;58.00
55771;DHT22;41687;-33.234;-60.334;2023-09-18T08:56:05;10.60;58.10
55771;DHT22;41687;-33.234;-60.334;2023-09-18T08:58:37;10.70;57.70
55771;DHT22;41687;-33.234;-60.334;2023-09-18T09:01:07;10.70;57.50
55771;DHT22;41687;-33.234;-60.334;2023-09-18T09:03:41;10.60;57.60
55771;DHT22;41687;-33.234;-60.334;2023-09-18T09:06:11;10.60;57.50
55771;DHT22;41687;-33.234;-60.334;2023-09-18T09:08:38;10.60;57.60
55771;DHT22;41687;-33.234;-60.334;2023-09-18T09:11:06;10.60;57.00
55771;DHT22;41687;-33.234;-60.334;2023-09-18T09:13:34;10.70;56.80
55771;DHT22;41687;-33.234;-60.334;2023-09-18T09:16:02;10.70;56.60
55771;DHT22;41687;-33.234;-60.334;2023-09-18T09:18:30;10.70;55.90
55771;DHT22;41687;-33.234;-60.334;2023-09-18T09:21:02;10.70;55.90
55771;DHT22;41687;-33.234;-60.334;2023-09-18T09:23:49;10.60;55.80
55771;DHT22;41687;-33.234;-60.334;2023-09-18T09:26:22;10.70;56.10
55771;DHT22;41687;-33.234;-60.334;2023-09-18T09:28:49;10.60;55.90
55771;DHT22;41687;-33.234;-60.334;2023-09-18T09:31:27;10.60;55.80
55771;DHT22;41687;-33.234;-60.334;2023-09-18T09:33:55;10.50;55.80
55771;DHT22;41687;-33.234;-60.334;2023-09-18T09:36:24;10.40;56.00
55771;DHT22;41687;-33.234;-60.334;2023-09-18T09:38:56;10.40;56.00
55771;DHT22;41687;-33.234;-60.334;2023-09-18T09:41:27;10.40;56.00
55771;DHT22;41687;-33.234;-60.334;2023-09-18T09:43:55;10.20;56.10
55771;DHT22;41687;-33.234;-60.334;2023-09-18T09:46:24;10.10;56.20
55771;DHT22;41687;-33.234;-60.334;2023-09-18T09:49:04;10.20;56.30
55771;DHT22;41687;-33.234;-60.334;2023-09-18T09:51:33;10.20;55.60
55771;DHT22;41687;-33.234;-60.334;2023-09-18T09:54:01;10.30;55.60
55771;DHT22;41687;-33.234;-60.334;2023-09-18T09:56:46;10.30;55.40
55771;DHT22;41687;-33.234;-60.334;2023-09-18T09:59:16;10.20;56.00
55771;DHT22;41687;-33.234;-60.334;2023-09-18T10:01:49;10.30;55.80
55771;DHT22;41687;-33.234;-60.334;2023-09-18T10:04:19;10.30;55.70
55771;DHT22;41687;-33.234;-60.334;2023-09-18T10:06:53;10.20;56.50
55771;DHT22;41687;-33.234;-60.334;2023-09-18T10:09:23;10.20;56.30
55771;DHT22;41687;-33.234;-60.334;2023-09-18T10:11:55;10.20;56.30
55771;DHT22;41687;-33.234;-60.334;2023-09-18T10:14:30;10.30;56.30
55771;DHT22;41687;-33.234;-60.334;2023-09-18T10:17:03;10.30;56.30
55771;DHT22;41687;-33.234;-60.334;2023-09-18T10:19:40;10.40;55.70
55771;DHT22;41687;-33.234;-60.334;2023-09-18T10:22:28;10.40;56.00
55771;DHT22;41687;-33.234;-60.334;2023-09-18T10:25:06;10.40;55.80
55771;DHT22;41687;-33.234;-60.334;2023-09-18T10:27:38;10.50;55.20
55771;DHT22;41687;-33.234;-60.334;2023-09-18T10:30:10;10.50;55.40
55771;DHT22;41687;-33.234;-60.334;2023-09-18T10:32:41;10.50;55.00
55771;DHT22;41687;-33.234;-60.334;2023-09-18T10:35:09;10.50;55.30
55771;DHT22;41687;-33.234;-60.334;2023-09-18T10:37:39;10.50;55.30
55771;DHT22;41687;-33.234;-60.334;2023-09-18T10:40:09;10.60;55.40
55771;DHT22;41687;-33.234;-60.334;2023-09-18T10:42:39;10.70;55.30
55771;DHT22;41687;-33.234;-60.334;2023-09-18T10:45:12;10.70;55.50
55771;DHT22;41687;-33.234;-60.334;2023-09-18T10:47:45;11.30;55.00
55771;DHT22;41687;-33.234;-60.334;2023-09-18T10:50:23;12.10;52.90
55771;DHT22;41687;-33.234;-60.334;2023-09-18T10:52:51;12.30;51.70
55771;DHT22;41687;-33.234;-60.334;2023-09-18T10:55:20;12.00;51.30
55771;DHT22;41687;-33.234;-60.334;2023-09-18T10:57:57;11.90;51.30
55771;DHT22;41687;-33.234;-60.334;2023-09-18T11:00:26;11.90;51.60
55771;DHT22;41687;-33.234;-60.334;2023-09-18T11:03:15;11.80;51.50
55771;DHT22;41687;-33.234;-60.334;2023-09-18T11:05:47;11.70;51.50
55771;DHT22;41687;-33.234;-60.334;2023-09-18T11:08:29;12.50;50.20
55771;DHT22;41687;-33.234;-60.334;2023-09-18T11:11:03;13.00;47.90
55771;DHT22;41687;-33.234;-60.334;2023-09-18T11:13:34;12.90;47.40
55771;DHT22;41687;-33.234;-60.334;2023-09-18T11:16:18;13.10;46.50
55771;DHT22;41687;-33.234;-60.334;2023-09-18T11:18:52;13.40;45.00
55771;DHT22;41687;-33.234;-60.334;2023-09-18T11:21:25;13.70;43.80
55771;DHT22;41687;-33.234;-60.334;2023-09-18T11:24:01;13.70;43.00
55771;DHT22;41687;-33.234;-60.334;2023-09-18T11:26:36;13.70;42.00
55771;DHT22;41687;-33.234;-60.334;2023-09-18T11:29:05;13.60;42.30
55771;DHT22;41687;-33.234;-60.334;2023-09-18T11:31:49;13.60;41.70
55771;DHT22;41687;-33.234;-60.334;2023-09-18T11:34:21;13.60;41.10
55771;DHT22;41687;-33.234;-60.334;2023-09-18T11:36:50;13.60;40.90
55771;DHT22;41687;-33.234;-60.334;2023-09-18T11:39:50;13.60;40.90
55771;DHT22;41687;-33.234;-60.334;2023-09-18T11:42:20;13.60;39.70
55771;DHT22;41687;-33.234;-60.334;2023-09-18T11:44:50;13.50;40.20
55771;DHT22;41687;-33.234;-60.334;2023-09-18T11:47:23;13.50;39.50
55771;DHT22;41687;-33.234;-60.334;2023-09-18T11:49:59;13.80;39.10
55771;DHT22;41687;-33.234;-60.334;2023-09-18T11:52:30;14.40;38.50
55771;DHT22;41687;-33.234;-60.334;2023-09-18T11:55:00;14.80;37.50
55771;DHT22;41687;-33.234;-60.334;2023-09-18T11:57:28;14.90;36.80
55771;DHT22;41687;-33.234;-60.334;2023-09-18T11:59:59;14.70;36.60
55771;DHT22;41687;-33.234;-60.334;2023-09-18T12:02:38;15.00;37.20
55771;DHT22;41687;-33.234;-60.334;2023-09-18T12:05:20;15.30;37.30
55771;DHT22;41687;-33.234;-60.334;2023-09-18T12:07:47;15.50;36.90
55771;DHT22;41687;-33.234;-60.334;2023-09-18T12:10:19;15.80;37.00
55771;DHT22;41687;-33.234;-60.334;2023-09-18T12:12:48;16.00;35.80
55771;DHT22;41687;-33.234;-60.334;2023-09-18T12:15:17;16.30;35.20
55771;DHT22;41687;-33.234;-60.334;2023-09-18T12:17:47;16.40;34.00
55771;DHT22;41687;-33.234;-60.334;2023-09-18T12:20:18;16.50;34.20
55771;DHT22;41687;-33.234;-60.334;2023-09-18T12:22:50;16.50;33.00
55771;DHT22;41687;-33.234;-60.334;2023-09-18T12:25:18;16.60;31.60
55771;DHT22;41687;-33.234;-60.334;2023-09-18T12:27:46;16.80;33.30
55771;DHT22;41687;-33.234;-60.334;2023-09-18T12:30:19;17.10;32.20
55771;DHT22;41687;-33.234;-60.334;2023-09-18T12:32:48;17.20;33.10
55771;DHT22;41687;-33.234;-60.334;2023-09-18T12:35:17;17.30;31.10
55771;DHT22;41687;-33.234;-60.334;2023-09-18T12:37:45;17.50;30.70
55771;DHT22;41687;-33.234;-60.334;2023-09-18T12:40:30;17.40;30.20
55771;DHT22;41687;-33.234;-60.334;2023-09-18T12:43:00;17.70;29.00
55771;DHT22;41687;-33.234;-60.334;2023-09-18T12:45:29;17.80;30.80
55771;DHT22;41687;-33.234;-60.334;2023-09-18T12:47:58;18.00;30.30
55771;DHT22;41687;-33.234;-60.334;2023-09-18T12:50:25;18.10;29.00
55771;DHT22;41687;-33.234;-60.334;2023-09-18T12:52:53;18.20;28.70
55771;DHT22;41687;-33.234;-60.334;2023-09-18T12:55:24;18.30;28.80
55771;DHT22;41687;-33.234;-60.334;2023-09-18T12:57:56;18.50;28.50
55771;DHT22;41687;-33.234;-60.334;2023-09-18T13:00:23;18.40;27.20
55771;DHT22;41687;-33.234;-60.334;2023-09-18T13:02:53;18.40;28.00
55771;DHT22;41687;-33.234;-60.334;2023-09-18T13:05:24;18.40;27.90
55771;DHT22;41687;-33.234;-60.334;2023-09-18T13:07:55;18.50;27.60
55771;DHT22;41687;-33.234;-60.334;2023-09-18T13:10:23;18.70;28.00
55771;DHT22;41687;-33.234;-60.334;2023-09-18T13:12:53;18.90;27.70
55771;DHT22;41687;-33.234;-60.334;2023-09-18T13:15:30;18.80;27.20
55771;DHT22;41687;-33.234;-60.334;2023-09-18T13:18:09;19.00;27.90
55771;DHT22;41687;-33.234;-60.334;2023-09-18T13:20:37;19.00;26.40
55771;DHT22;41687;-33.234;-60.334;2023-09-18T13:23:08;19.00;26.90
55771;DHT22;41687;-33.234;-60.334;2023-09-18T13:25:37;19.10;27.20
55771;DHT22;41687;-33.234;-60.334;2023-09-18T13:28:08;19.10;27.50
55771;DHT22;41687;-33.234;-60.334;2023-09-18T13:30:41;19.30;28.00
55771;DHT22;41687;-33.234;-60.334;2023-09-18T13:33:12;19.40;27.20
55771;DHT22;41687;-33.234;-60.334;2023-09-18T13:35:41;19.40;27.30
55771;DHT22;41687;-33.234;-60.334;2023-09-18T13:38:10;19.40;27.10
55771;DHT22;41687;-33.234;-60.334;2023-09-18T13:40:40;19.70;28.20
55771;DHT22;41687;-33.234;-60.334;2023-09-18T13:43:09;19.70;27.40
55771;DHT22;41687;-33.234;-60.334;2023-09-18T13:45:37;19.60;26.60
55771;DHT22;41687;-33.234;-60.334;2023-09-18T13:48:07;19.80;28.70
55771;DHT22;41687;-33.234;-60.334;2023-09-18T13:50:36;19.70;27.00
55771;DHT22;41687;-33.234;-60.334;2023-09-18T13:53:05;19.80;26.40
55771;DHT22;41687;-33.234;-60.334;2023-09-18T13:55:34;19.80;26.50
55771;DHT22;41687;-33.234;-60.334;2023-09-18T13:58:02;19.80;26.50
55771;DHT22;41687;-33.234;-60.334;2023-09-18T14:00:33;20.00;26.00
55771;DHT22;41687;-33.234;-60.334;2023-09-18T14:03:00;20.10;26.20
55771;DHT22;41687;-33.234;-60.334;2023-09-18T14:05:30;19.80;24.90
55771;DHT22;41687;-33.234;-60.334;2023-09-18T14:08:00;19.80;26.50
55771;DHT22;41687;-33.234;-60.334;2023-09-18T14:10:28;19.80;25.70
55771;DHT22;41687;-33.234;-60.334;2023-09-18T14:12:56;19.80;24.30
55771;DHT22;41687;-33.234;-60.334;2023-09-18T14:15:24;19.70;24.40
55771;DHT22;41687;-33.234;-60.334;2023-09-18T14:17:52;19.80;24.60
55771;DHT22;41687;-33.234;-60.334;2023-09-18T14:20:21;19.40;24.70
55771;DHT22;41687;-33.234;-60.334;2023-09-18T14:22:48;19.40;23.60
55771;DHT22;41687;-33.234;-60.334;2023-09-18T14:25:17;19.50;24.60
55771;DHT22;41687;-33.234;-60.334;2023-09-18T14:27:46;19.30;23.70
55771;DHT22;41687;-33.234;-60.334;2023-09-18T14:30:14;19.40;24.80
55771;DHT22;41687;-33.234;-60.334;2023-09-18T14:32:42;19.40;25.60
55771;DHT22;41687;-33.234;-60.334;2023-09-18T14:35:10;19.50;24.60
55771;DHT22;41687;-33.234;-60.334;2023-09-18T14:37:38;19.50;24.10
55771;DHT22;41687;-33.234;-60.334;2023-09-18T14:40:05;19.30;23.60
55771;DHT22;41687;-33.234;-60.334;2023-09-18T14:42:39;19.20;24.90
55771;DHT22;41687;-33.234;-60.334;2023-09-18T14:45:06;19.20;23.90
55771;DHT22;41687;-33.234;-60.334;2023-09-18T14:47:36;19.10;25.10
55771;DHT22;41687;-33.234;-60.334;2023-09-18T14:50:04;19.00;23.90
55771;DHT22;41687;-33.234;-60.334;2023-09-18T14:52:32;19.20;24.50
55771;DHT22;41687;-33.234;-60.334;2023-09-18T14:55:00;19.20;24.30
55771;DHT22;41687;-33.234;-60.334;2023-09-18T14:57:28;19.30;24.90
55771;DHT22;41687;-33.234;-60.334;2023-09-18T14:59:56;19.30;24.40
55771;DHT22;41687;-33.234;-60.334;2023-09-18T15:02:24;19.20;24.20
55771;DHT22;41687;-33.234;-60.334;2023-09-18T15:04:56;19.30;24.40
55771;DHT22;41687;-33.234;-60.334;2023-09-18T15:07:24;19.20;24.40
55771;DHT22;41687;-33.234;-60.334;2023-09-18T15:09:52;19.30;24.80
55771;DHT22;41687;-33.234;-60.334;2023-09-18T15:12:20;19.20;24.30